GOGK

Kolda Airport

Kolda, Senegal
METAR GOGK 221500Z 36008KT CAVOK 41/13 Q1008
Observed Flight Rules
May-22 @ 15:00 UTC (3 hours ago) Visual Flight Rules
Wind Visibility Clouds
360° at 8 knots 10,000+ meters
  • Clear skies
Temperatures Readings
Current 41°C / 106°F
Dewpoint 13°C / 55°F
Humidity 19%
Altimeter 29.76" Hg
Pressure 1008 hPa
Elevation 10
METAR GOGK 221500Z 36008KT CAVOK 41/13 Q1008
Observed Flight Rules
May-22 @ 15:00 UTC
(3 hours ago)
VFR
Wind Visibility
360° at 8 knots 10,000+ meters
Clouds
  • Clear skies
Temperature Dewpoint
41°C / 106°F 13°C / 55°F
Humidity Altimeter Pressure
19% 29.76" Hg 1008 hPa